sensor_id;sensor_type;location;lat;lon;timestamp;pressure;altitude;pressure_sealevel;temperature;humidity
66681;BME280;53575;51.366;12.350;2023-05-14T00:00:58;100671.38;;;13.78;81.35
66681;BME280;53575;51.366;12.350;2023-05-14T00:03:23;100667.88;;;13.78;79.96
66681;BME280;53575;51.366;12.350;2023-05-14T00:05:49;100662.53;;;13.84;79.38
66681;BME280;53575;51.366;12.350;2023-05-14T00:08:14;100664.44;;;13.74;79.52
66681;BME280;53575;51.366;12.350;2023-05-14T00:10:40;100663.63;;;13.68;79.09
66681;BME280;53575;51.366;12.350;2023-05-14T00:13:05;100662.78;;;13.67;78.96
66681;BME280;53575;51.366;12.350;2023-05-14T00:15:31;100655.03;;;13.56;79.23
66681;BME280;53575;51.366;12.350;2023-05-14T00:17:56;100659.31;;;13.62;78.46
66681;BME280;53575;51.366;12.350;2023-05-14T00:20:22;100650.44;;;13.74;78.27
66681;BME280;53575;51.366;12.350;2023-05-14T00:22:47;100653.16;;;13.66;77.91
66681;BME280;53575;51.366;12.350;2023-05-14T00:25:13;100651.41;;;13.65;78.86
66681;BME280;53575;51.366;12.350;2023-05-14T00:27:38;100646.16;;;13.65;78.74
66681;BME280;53575;51.366;12.350;2023-05-14T00:30:04;100642.59;;;13.71;78.02
66681;BME280;53575;51.366;12.350;2023-05-14T00:32:31;100632.81;;;13.80;77.17
66681;BME280;53575;51.366;12.350;2023-05-14T00:34:57;100634.50;;;13.84;76.78
66681;BME280;53575;51.366;12.350;2023-05-14T00:37:22;100626.56;;;13.87;76.66
66681;BME280;53575;51.366;12.350;2023-05-14T00:39:48;100629.34;;;13.78;77.95
66681;BME280;53575;51.366;12.350;2023-05-14T00:42:13;100625.06;;;13.70;77.79
66681;BME280;53575;51.366;12.350;2023-05-14T00:44:38;100630.41;;;13.65;78.92
66681;BME280;53575;51.366;12.350;2023-05-14T00:47:04;100633.06;;;13.63;78.27
66681;BME280;53575;51.366;12.350;2023-05-14T00:49:30;100630.50;;;13.59;78.97
66681;BME280;53575;51.366;12.350;2023-05-14T00:51:56;100633.06;;;13.63;79.11
66681;BME280;53575;51.366;12.350;2023-05-14T00:54:23;100634.81;;;13.63;78.97
66681;BME280;53575;51.366;12.350;2023-05-14T00:56:49;100639.16;;;13.64;79.70
66681;BME280;53575;51.366;12.350;2023-05-14T00:59:15;100632.28;;;13.54;79.60
66681;BME280;53575;51.366;12.350;2023-05-14T01:01:41;100635.06;;;13.45;80.24
66681;BME280;53575;51.366;12.350;2023-05-14T01:04:06;100635.88;;;13.47;79.57
66681;BME280;53575;51.366;12.350;2023-05-14T01:06:49;100637.44;;;13.61;79.10
66681;BME280;53575;51.366;12.350;2023-05-14T01:09:28;100633.00;;;13.68;78.80
66681;BME280;53575;51.366;12.350;2023-05-14T01:17:04;100629.66;;;13.55;79.54
66681;BME280;53575;51.366;12.350;2023-05-14T01:19:41;100634.16;;;13.47;78.62
66681;BME280;53575;51.366;12.350;2023-05-14T01:22:07;100628.06;;;13.42;79.87
66681;BME280;53575;51.366;12.350;2023-05-14T01:24:33;100631.63;;;13.38;79.98
66681;BME280;53575;51.366;12.350;2023-05-14T01:27:09;100633.44;;;13.31;79.30
66681;BME280;53575;51.366;12.350;2023-05-14T01:29:42;100632.59;;;13.32;81.24
66681;BME280;53575;51.366;12.350;2023-05-14T01:32:09;100635.16;;;13.37;80.19
66681;BME280;53575;51.366;12.350;2023-05-14T01:34:35;100630.06;;;13.25;80.18
66681;BME280;53575;51.366;12.350;2023-05-14T01:37:03;100626.44;;;13.33;80.24
66681;BME280;53575;51.366;12.350;2023-05-14T01:39:30;100621.38;;;13.16;80.27
66681;BME280;53575;51.366;12.350;2023-05-14T01:41:57;100622.25;;;13.17;80.61
66681;BME280;53575;51.366;12.350;2023-05-14T01:44:23;100621.34;;;13.18;80.99
66681;BME280;53575;51.366;12.350;2023-05-14T01:46:49;100617.19;;;12.99;81.17
66681;BME280;53575;51.366;12.350;2023-05-14T01:49:14;100612.00;;;12.94;82.36
66681;BME280;53575;51.366;12.350;2023-05-14T01:51:42;100612.91;;;12.91;82.77
66681;BME280;53575;51.366;12.350;2023-05-14T01:54:07;100614.00;;;12.71;82.96
66681;BME280;53575;51.366;12.350;2023-05-14T01:56:33;100609.44;;;12.88;83.24
66681;BME280;53575;51.366;12.350;2023-05-14T01:58:58;100612.16;;;12.80;82.96
66681;BME280;53575;51.366;12.350;2023-05-14T02:01:24;100606.09;;;12.74;83.20
66681;BME280;53575;51.366;12.350;2023-05-14T02:03:50;100610.56;;;12.62;84.04
66681;BME280;53575;51.366;12.350;2023-05-14T02:06:15;100604.53;;;12.54;84.79
66681;BME280;53575;51.366;12.350;2023-05-14T02:08:41;100604.53;;;12.56;84.57
66681;BME280;53575;51.366;12.350;2023-05-14T02:11:06;100609.81;;;12.53;84.55
66681;BME280;53575;51.366;12.350;2023-05-14T02:13:31;100608.69;;;12.77;83.55
66681;BME280;53575;51.366;12.350;2023-05-14T02:15:57;100606.06;;;12.77;85.16
66681;BME280;53575;51.366;12.350;2023-05-14T02:18:22;100604.31;;;12.79;84.08
66681;BME280;53575;51.366;12.350;2023-05-14T02:20:48;100603.22;;;12.97;86.28
66681;BME280;53575;51.366;12.350;2023-05-14T02:23:13;100610.22;;;12.96;86.19
66681;BME280;53575;51.366;12.350;2023-05-14T02:25:38;100602.34;;;12.96;83.50
66681;BME280;53575;51.366;12.350;2023-05-14T02:28:04;100606.78;;;12.91;83.83
66681;BME280;53575;51.366;12.350;2023-05-14T02:30:29;100598.03;;;12.93;84.26
66681;BME280;53575;51.366;12.350;2023-05-14T02:32:55;100605.00;;;12.93;84.32
66681;BME280;53575;51.366;12.350;2023-05-14T02:35:21;100593.66;;;12.94;83.54
66681;BME280;53575;51.366;12.350;2023-05-14T02:37:47;100591.88;;;12.93;83.61
66681;BME280;53575;51.366;12.350;2023-05-14T02:40:12;100601.53;;;12.89;83.61
66681;BME280;53575;51.366;12.350;2023-05-14T02:42:38;100598.97;;;12.85;84.17
66681;BME280;53575;51.366;12.350;2023-05-14T02:45:03;100599.91;;;12.81;83.67
66681;BME280;53575;51.366;12.350;2023-05-14T02:47:29;100597.28;;;12.81;83.98
66681;BME280;53575;51.366;12.350;2023-05-14T02:49:54;100599.78;;;12.91;83.33
66681;BME280;53575;51.366;12.350;2023-05-14T02:52:19;100584.91;;;12.92;83.40
66681;BME280;53575;51.366;12.350;2023-05-14T02:54:45;100587.47;;;12.97;82.76
66681;BME280;53575;51.366;12.350;2023-05-14T02:57:10;100587.56;;;12.90;83.14
66681;BME280;53575;51.366;12.350;2023-05-14T02:59:35;100586.75;;;12.84;83.94
66681;BME280;53575;51.366;12.350;2023-05-14T03:02:01;100585.09;;;12.78;84.11
66681;BME280;53575;51.366;12.350;2023-05-14T03:04:26;100585.09;;;12.77;83.74
66681;BME280;53575;51.366;12.350;2023-05-14T03:06:52;100585.06;;;12.80;83.96
66681;BME280;53575;51.366;12.350;2023-05-14T03:09:17;100584.34;;;12.67;84.25
66681;BME280;53575;51.366;12.350;2023-05-14T03:11:42;100582.59;;;12.63;84.76
66681;BME280;53575;51.366;12.350;2023-05-14T03:14:08;100579.94;;;12.71;84.50
66681;BME280;53575;51.366;12.350;2023-05-14T03:16:33;100586.94;;;12.65;85.08
66681;BME280;53575;51.366;12.350;2023-05-14T03:18:58;100583.41;;;12.71;84.74
66681;BME280;53575;51.366;12.350;2023-05-14T03:21:24;100585.13;;;12.75;84.03
66681;BME280;53575;51.366;12.350;2023-05-14T03:23:51;100581.38;;;12.98;83.01
66681;BME280;53575;51.366;12.350;2023-05-14T03:26:16;100578.59;;;13.10;82.05
66681;BME280;53575;51.366;12.350;2023-05-14T03:28:43;100581.16;;;13.14;81.67
66681;BME280;53575;51.366;12.350;2023-05-14T03:31:08;100582.19;;;13.03;82.04
66681;BME280;53575;51.366;12.350;2023-05-14T03:33:33;100576.22;;;12.88;82.95
66681;BME280;53575;51.366;12.350;2023-05-14T03:35:59;100576.38;;;12.75;83.96
66681;BME280;53575;51.366;12.350;2023-05-14T03:38:24;100576.63;;;12.52;85.06
66681;BME280;53575;51.366;12.350;2023-05-14T03:40:50;100569.66;;;12.49;85.28
66681;BME280;53575;51.366;12.350;2023-05-14T03:43:15;100565.28;;;12.50;85.79
66681;BME280;53575;51.366;12.350;2023-05-14T03:45:41;100573.25;;;12.40;85.97
66681;BME280;53575;51.366;12.350;2023-05-14T03:48:06;100573.28;;;12.34;86.51
66681;BME280;53575;51.366;12.350;2023-05-14T03:50:31;100571.63;;;12.26;86.66
66681;BME280;53575;51.366;12.350;2023-05-14T03:52:57;100569.00;;;12.26;86.98
66681;BME280;53575;51.366;12.350;2023-05-14T03:55:22;100562.88;;;12.27;87.04
66681;BME280;53575;51.366;12.350;2023-05-14T03:57:48;100567.09;;;12.40;86.26
66681;BME280;53575;51.366;12.350;2023-05-14T04:00:13;100558.31;;;12.46;85.75
66681;BME280;53575;51.366;12.350;2023-05-14T04:02:39;100561.75;;;12.52;85.68
66681;BME280;53575;51.366;12.350;2023-05-14T04:05:05;100559.13;;;12.52;85.07
66681;BME280;53575;51.366;12.350;2023-05-14T04:07:30;100561.78;;;12.48;85.60
66681;BME280;53575;51.366;12.350;2023-05-14T04:09:55;100561.63;;;12.63;84.77
66681;BME280;53575;51.366;12.350;2023-05-14T04:12:21;100555.31;;;12.81;83.31
66681;BME280;53575;51.366;12.350;2023-05-14T04:14:46;100552.56;;;12.91;82.30
66681;BME280;53575;51.366;12.350;2023-05-14T04:17:11;100556.16;;;12.86;83.36
66681;BME280;53575;51.366;12.350;2023-05-14T04:19:37;100554.56;;;12.71;83.62
66681;BME280;53575;51.366;12.350;2023-05-14T04:22:03;100551.09;;;12.69;84.43
66681;BME280;53575;51.366;12.350;2023-05-14T04:24:29;100545.66;;;12.84;84.06
66681;BME280;53575;51.366;12.350;2023-05-14T04:26:54;100551.78;;;12.85;84.10
66681;BME280;53575;51.366;12.350;2023-05-14T04:29:20;100552.66;;;12.84;83.74
66681;BME280;53575;51.366;12.350;2023-05-14T04:31:45;100549.97;;;12.88;82.69
66681;BME280;53575;51.366;12.350;2023-05-14T04:34:10;100550.78;;;12.95;82.45
66681;BME280;53575;51.366;12.350;2023-05-14T04:36:36;100548.03;;;13.06;81.45
66681;BME280;53575;51.366;12.350;2023-05-14T04:39:01;100545.25;;;13.18;81.23
66681;BME280;53575;51.366;12.350;2023-05-14T04:41:27;100547.84;;;13.20;81.17
66681;BME280;53575;51.366;12.350;2023-05-14T04:43:55;100548.75;;;13.18;80.96
66681;BME280;53575;51.366;12.350;2023-05-14T04:46:20;100554.91;;;13.14;81.75
66681;BME280;53575;51.366;12.350;2023-05-14T04:48:46;100545.19;;;13.26;80.55
66681;BME280;53575;51.366;12.350;2023-05-14T04:51:13;100542.59;;;13.20;81.58
66681;BME280;53575;51.366;12.350;2023-05-14T04:53:38;100547.78;;;13.29;80.85
66681;BME280;53575;51.366;12.350;2023-05-14T04:56:04;100543.22;;;13.41;80.46
66681;BME280;53575;51.366;12.350;2023-05-14T04:58:29;100541.44;;;13.44;80.45
66681;BME280;53575;51.366;12.350;2023-05-14T05:00:57;100541.59;;;13.33;81.17
66681;BME280;53575;51.366;12.350;2023-05-14T05:03:22;100539.75;;;13.38;81.06
66681;BME280;53575;51.366;12.350;2023-05-14T05:05:48;100540.50;;;13.46;80.90
66681;BME280;53575;51.366;12.350;2023-05-14T05:08:13;100545.75;;;13.48;81.14
66681;BME280;53575;51.366;12.350;2023-05-14T05:10:38;100545.63;;;13.57;81.11
66681;BME280;53575;51.366;12.350;2023-05-14T05:13:04;100550.63;;;13.74;79.74
66681;BME280;53575;51.366;12.350;2023-05-14T05:15:29;100546.16;;;13.79;79.12
66681;BME280;53575;51.366;12.350;2023-05-14T05:17:55;100550.44;;;13.86;78.93
66681;BME280;53575;51.366;12.350;2023-05-14T05:20:20;100549.31;;;14.01;78.03
66681;BME280;53575;51.366;12.350;2023-05-14T05:22:45;100552.84;;;13.98;78.39
66681;BME280;53575;51.366;12.350;2023-05-14T05:25:11;100554.13;;;13.73;79.11
66681;BME280;53575;51.366;12.350;2023-05-14T05:27:37;100548.97;;;13.67;79.95
66681;BME280;53575;51.366;12.350;2023-05-14T05:30:03;100546.13;;;13.80;79.92
66681;BME280;53575;51.366;12.350;2023-05-14T05:32:29;100553.19;;;13.77;80.46
66681;BME280;53575;51.366;12.350;2023-05-14T05:34:54;100549.06;;;13.60;82.23
66681;BME280;53575;51.366;12.350;2023-05-14T05:37:20;100540.34;;;13.58;81.66
66681;BME280;53575;51.366;12.350;2023-05-14T05:39:45;100537.13;;;13.38;81.83
66681;BME280;53575;51.366;12.350;2023-05-14T05:42:12;100532.09;;;13.24;82.86
66681;BME280;53575;51.366;12.350;2023-05-14T05:44:38;100534.63;;;13.32;83.85
66681;BME280;53575;51.366;12.350;2023-05-14T05:47:03;100532.00;;;13.30;84.39
66681;BME280;53575;51.366;12.350;2023-05-14T05:49:28;100534.69;;;13.26;84.50
66681;BME280;53575;51.366;12.350;2023-05-14T05:51:54;100532.06;;;13.23;83.74
66681;BME280;53575;51.366;12.350;2023-05-14T05:54:21;100538.09;;;13.31;84.16
66681;BME280;53575;51.366;12.350;2023-05-14T05:56:55;100529.25;;;13.39;84.56
66681;BME280;53575;51.366;12.350;2023-05-14T05:59:21;100532.72;;;13.41;85.44
66681;BME280;53575;51.366;12.350;2023-05-14T06:01:46;100532.75;;;13.38;85.25
66681;BME280;53575;51.366;12.350;2023-05-14T06:04:12;100533.53;;;13.45;87.25
66681;BME280;53575;51.366;12.350;2023-05-14T06:06:37;100535.25;;;13.46;85.11
66681;BME280;53575;51.366;12.350;2023-05-14T06:09:03;100525.63;;;13.48;85.45
66681;BME280;53575;51.366;12.350;2023-05-14T06:11:28;100533.38;;;13.56;86.19
66681;BME280;53575;51.366;12.350;2023-05-14T06:13:54;100535.03;;;13.61;86.00
66681;BME280;53575;51.366;12.350;2023-05-14T06:16:19;100530.53;;;13.70;83.59
66681;BME280;53575;51.366;12.350;2023-05-14T06:18:45;100532.28;;;13.71;79.52
66681;BME280;53575;51.366;12.350;2023-05-14T06:21:10;100526.91;;;13.77;79.46
66681;BME280;53575;51.366;12.350;2023-05-14T06:23:36;100528.56;;;13.85;78.83
66681;BME280;53575;51.366;12.350;2023-05-14T06:26:01;100532.66;;;14.00;78.78
66681;BME280;53575;51.366;12.350;2023-05-14T06:28:26;100529.00;;;14.10;78.67
66681;BME280;53575;51.366;12.350;2023-05-14T06:30:52;100533.22;;;14.19;76.43
66681;BME280;53575;51.366;12.350;2023-05-14T06:33:20;100529.72;;;14.20;76.60
66681;BME280;53575;51.366;12.350;2023-05-14T06:35:53;100533.06;;;14.28;76.42
66681;BME280;53575;51.366;12.350;2023-05-14T06:38:19;100534.66;;;14.38;75.42
66681;BME280;53575;51.366;12.350;2023-05-14T06:40:44;100533.75;;;14.39;75.48
66681;BME280;53575;51.366;12.350;2023-05-14T06:43:10;100526.69;;;14.43;76.67
66681;BME280;53575;51.366;12.350;2023-05-14T06:45:35;100524.81;;;14.48;76.05
66681;BME280;53575;51.366;12.350;2023-05-14T06:48:01;100528.09;;;14.62;74.08
66681;BME280;53575;51.366;12.350;2023-05-14T06:50:26;100513.88;;;14.71;73.65
66681;BME280;53575;51.366;12.350;2023-05-14T06:52:52;100520.84;;;14.74;72.34
66681;BME280;53575;51.366;12.350;2023-05-14T06:55:17;100516.34;;;14.79;71.53
66681;BME280;53575;51.366;12.350;2023-05-14T06:57:42;100513.56;;;14.86;72.09
66681;BME280;53575;51.366;12.350;2023-05-14T07:00:09;100518.72;;;14.93;72.49
66681;BME280;53575;51.366;12.350;2023-05-14T07:02:34;100506.53;;;14.87;72.80
66681;BME280;53575;51.366;12.350;2023-05-14T07:05:00;100513.47;;;14.93;72.61
66681;BME280;53575;51.366;12.350;2023-05-14T07:07:26;100505.34;;;15.02;71.87
66681;BME280;53575;51.366;12.350;2023-05-14T07:09:51;100502.72;;;15.03;70.31
66681;BME280;53575;51.366;12.350;2023-05-14T07:12:16;100499.94;;;15.09;70.01
66681;BME280;53575;51.366;12.350;2023-05-14T07:14:42;100493.63;;;15.17;70.81
66681;BME280;53575;51.366;12.350;2023-05-14T07:17:07;100498.72;;;15.24;71.49
66681;BME280;53575;51.366;12.350;2023-05-14T07:19:33;100496.84;;;15.31;71.40
66681;BME280;53575;51.366;12.350;2023-05-14T07:21:58;100499.34;;;15.35;71.11
66681;BME280;53575;51.366;12.350;2023-05-14T07:24:23;100493.06;;;15.41;70.40
66681;BME280;53575;51.366;12.350;2023-05-14T07:26:49;100494.72;;;15.47;69.24
66681;BME280;53575;51.366;12.350;2023-05-14T07:29:14;100486.75;;;15.50;68.80
66681;BME280;53575;51.366;12.350;2023-05-14T07:31:40;100481.31;;;15.56;68.84
66681;BME280;53575;51.366;12.350;2023-05-14T07:34:05;100477.69;;;15.62;68.22
66681;BME280;53575;51.366;12.350;2023-05-14T07:36:32;100483.59;;;15.73;67.79
66681;BME280;53575;51.366;12.350;2023-05-14T07:38:57;100481.56;;;15.84;67.44
66681;BME280;53575;51.366;12.350;2023-05-14T07:41:23;100483.28;;;15.85;68.41
66681;BME280;53575;51.366;12.350;2023-05-14T07:43:48;100484.69;;;15.98;66.67
66681;BME280;53575;51.366;12.350;2023-05-14T07:46:14;100485.47;;;16.02;65.68
66681;BME280;53575;51.366;12.350;2023-05-14T07:48:39;100474.97;;;16.00;66.46
66681;BME280;53575;51.366;12.350;2023-05-14T07:51:04;100473.84;;;16.11;66.10
66681;BME280;53575;51.366;12.350;2023-05-14T07:53:30;100471.88;;;16.19;65.58
66681;BME280;53575;51.366;12.350;2023-05-14T07:55:56;100466.59;;;16.17;66.23
66681;BME280;53575;51.366;12.350;2023-05-14T07:58:21;100463.03;;;16.20;65.63
66681;BME280;53575;51.366;12.350;2023-05-14T08:00:47;100467.16;;;16.30;65.34
66681;BME280;53575;51.366;12.350;2023-05-14T08:03:13;100458.84;;;16.45;64.60
66681;BME280;53575;51.366;12.350;2023-05-14T08:05:38;100456.66;;;16.60;63.74
66681;BME280;53575;51.366;12.350;2023-05-14T08:08:04;100455.75;;;16.61;63.17
66681;BME280;53575;51.366;12.350;2023-05-14T08:10:29;100453.56;;;16.76;61.97
66681;BME280;53575;51.366;12.350;2023-05-14T08:12:55;100451.56;;;16.85;61.59
66681;BME280;53575;51.366;12.350;2023-05-14T08:15:20;100448.09;;;16.83;61.98
66681;BME280;53575;51.366;12.350;2023-05-14T08:17:46;100448.09;;;16.83;60.84
66681;BME280;53575;51.366;12.350;2023-05-14T08:20:11;100448.53;;;16.98;60.43
66681;BME280;53575;51.366;12.350;2023-05-14T08:22:37;100450.38;;;16.95;61.36
66681;BME280;53575;51.366;12.350;2023-05-14T08:25:02;100446.44;;;17.08;60.71
66681;BME280;53575;51.366;12.350;2023-05-14T08:27:28;100441.78;;;17.16;60.56
66681;BME280;53575;51.366;12.350;2023-05-14T08:29:53;100438.88;;;17.25;59.62
66681;BME280;53575;51.366;12.350;2023-05-14T08:32:19;100439.28;;;17.40;57.91
66681;BME280;53575;51.366;12.350;2023-05-14T08:34:44;100439.66;;;17.29;58.49
66681;BME280;53575;51.366;12.350;2023-05-14T08:37:10;100434.53;;;17.23;57.01
66681;BME280;53575;51.366;12.350;2023-05-14T08:39:35;100433.25;;;17.36;58.49
66681;BME280;53575;51.366;12.350;2023-05-14T08:42:01;100425.88;;;17.46;60.12
66681;BME280;53575;51.366;12.350;2023-05-14T08:44:47;100431.59;;;17.60;60.28
66681;BME280;53575;51.366;12.350;2023-05-14T08:47:14;100426.69;;;17.76;59.73
66681;BME280;53575;51.366;12.350;2023-05-14T08:49:41;100424.53;;;17.87;59.15
66681;BME280;53575;51.366;12.350;2023-05-14T08:52:08;100418.56;;;17.82;59.11
66681;BME280;53575;51.366;12.350;2023-05-14T08:54:34;100410.09;;;17.97;58.48
66681;BME280;53575;51.366;12.350;2023-05-14T08:56:59;100413.94;;;18.12;59.13
66681;BME280;53575;51.366;12.350;2023-05-14T08:59:25;100406.56;;;18.22;58.85
66681;BME280;53575;51.366;12.350;2023-05-14T09:01:52;100413.66;;;18.20;58.91
66681;BME280;53575;51.366;12.350;2023-05-14T09:04:22;100411.28;;;18.12;58.65
66681;BME280;53575;51.366;12.350;2023-05-14T09:06:50;100411.94;;;18.19;59.32
66681;BME280;53575;51.366;12.350;2023-05-14T09:09:16;100407.78;;;18.12;57.96
66681;BME280;53575;51.366;12.350;2023-05-14T09:11:44;100399.88;;;18.35;57.91
66681;BME280;53575;51.366;12.350;2023-05-14T09:14:10;100395.41;;;18.61;56.78
66681;BME280;53575;51.366;12.350;2023-05-14T09:16:35;100395.41;;;18.84;55.48
66681;BME280;53575;51.366;12.350;2023-05-14T09:19:02;100391.13;;;19.04;54.89
66681;BME280;53575;51.366;12.350;2023-05-14T09:21:28;100389.44;;;19.23;53.58
66681;BME280;53575;51.366;12.350;2023-05-14T09:23:56;100399.81;;;19.29;54.43
66681;BME280;53575;51.366;12.350;2023-05-14T09:26:25;100397.28;;;19.48;54.09
66681;BME280;53575;51.366;12.350;2023-05-14T09:28:55;100402.81;;;19.64;52.75
66681;BME280;53575;51.366;12.350;2023-05-14T09:31:22;100393.38;;;19.57;53.82
66681;BME280;53575;51.366;12.350;2023-05-14T09:33:49;100389.31;;;19.70;52.10
66681;BME280;53575;51.366;12.350;2023-05-14T09:36:15;100395.88;;;19.60;51.59
66681;BME280;53575;51.366;12.350;2023-05-14T09:38:41;100397.06;;;19.53;52.32
66681;BME280;53575;51.366;12.350;2023-05-14T09:41:07;100387.78;;;19.64;53.01
66681;BME280;53575;51.366;12.350;2023-05-14T09:43:32;100384.00;;;19.70;51.87
66681;BME280;53575;51.366;12.350;2023-05-14T09:45:57;100381.75;;;19.81;52.13
66681;BME280;53575;51.366;12.350;2023-05-14T09:48:24;100387.19;;;19.99;52.38
66681;BME280;53575;51.366;12.350;2023-05-14T09:50:50;100390.81;;;20.16;51.35
66681;BME280;53575;51.366;12.350;2023-05-14T09:53:16;100373.47;;;20.28;49.10
66681;BME280;53575;51.366;12.350;2023-05-14T09:55:43;100371.03;;;19.84;49.77
66681;BME280;53575;51.366;12.350;2023-05-14T09:58:09;100370.25;;;19.60;49.27
66681;BME280;53575;51.366;12.350;2023-05-14T10:00:34;100365.91;;;19.37;50.32
66681;BME280;53575;51.366;12.350;2023-05-14T10:03:05;100363.88;;;19.22;51.13
66681;BME280;53575;51.366;12.350;2023-05-14T10:05:34;100361.84;;;19.29;50.71
66681;BME280;53575;51.366;12.350;2023-05-14T10:08:06;100364.28;;;19.13;51.82
66681;BME280;53575;51.366;12.350;2023-05-14T10:10:34;100356.25;;;19.36;51.79
66681;BME280;53575;51.366;12.350;2023-05-14T10:13:03;100357.63;;;19.67;50.76
66681;BME280;53575;51.366;12.350;2023-05-14T10:17:59;100353.66;;;19.35;49.90
66681;BME280;53575;51.366;12.350;2023-05-14T10:20:27;100344.81;;;19.14;49.63
66681;BME280;53575;51.366;12.350;2023-05-14T10:22:53;100342.34;;;19.31;49.23
66681;BME280;53575;51.366;12.350;2023-05-14T10:25:19;100337.34;;;19.66;49.63
66681;BME280;53575;51.366;12.350;2023-05-14T10:27:45;100328.72;;;20.20;47.57
66681;BME280;53575;51.366;12.350;2023-05-14T10:30:11;100323.47;;;20.58;45.18
66681;BME280;53575;51.366;12.350;2023-05-14T10:32:37;100322.50;;;20.78;45.02
66681;BME280;53575;51.366;12.350;2023-05-14T10:35:15;100316.34;;;21.14;44.58
66681;BME280;53575;51.366;12.350;2023-05-14T10:37:43;100318.81;;;21.53;42.21
66681;BME280;53575;51.366;12.350;2023-05-14T10:40:09;100320.16;;;21.95;42.43
66681;BME280;53575;51.366;12.350;2023-05-14T10:42:36;100323.44;;;22.33;41.59
66681;BME280;53575;51.366;12.350;2023-05-14T10:45:08;100318.81;;;22.84;41.65
66681;BME280;53575;51.366;12.350;2023-05-14T10:47:35;100319.38;;;23.21;39.65
66681;BME280;53575;51.366;12.350;2023-05-14T10:50:08;100313.59;;;22.99;39.80
66681;BME280;53575;51.366;12.350;2023-05-14T10:52:35;100314.41;;;23.15;39.32
66681;BME280;53575;51.366;12.350;2023-05-14T10:55:03;100309.72;;;23.34;38.56
66681;BME280;53575;51.366;12.350;2023-05-14T10:57:34;100310.34;;;22.94;37.60
66681;BME280;53575;51.366;12.350;2023-05-14T11:00:00;100307.31;;;22.68;38.45
66681;BME280;53575;51.366;12.350;2023-05-14T11:02:28;100304.94;;;21.97;40.74
66681;BME280;53575;51.366;12.350;2023-05-14T11:04:59;100307.28;;;21.70;42.73
66681;BME280;53575;51.366;12.350;2023-05-14T11:07:31;100296.97;;;21.64;43.67
66681;BME280;53575;51.366;12.350;2023-05-14T11:10:05;100299.88;;;20.88;45.32
66681;BME280;53575;51.366;12.350;2023-05-14T11:12:35;100296.44;;;20.86;45.67
66681;BME280;53575;51.366;12.350;2023-05-14T11:15:06;100293.03;;;20.65;46.30
66681;BME280;53575;51.366;12.350;2023-05-14T11:17:34;100297.75;;;20.40;46.78
66681;BME280;53575;51.366;12.350;2023-05-14T11:20:00;100286.88;;;20.65;45.91
66681;BME280;53575;51.366;12.350;2023-05-14T11:22:26;100287.06;;;20.97;45.44
66681;BME280;53575;51.366;12.350;2023-05-14T11:24:52;100286.75;;;20.85;44.57
66681;BME280;53575;51.366;12.350;2023-05-14T11:27:18;100286.03;;;20.82;44.72
66681;BME280;53575;51.366;12.350;2023-05-14T11:29:46;100288.56;;;20.66;44.99
66681;BME280;53575;51.366;12.350;2023-05-14T11:32:12;100282.91;;;20.55;45.86
66681;BME280;53575;51.366;12.350;2023-05-14T11:34:38;100281.91;;;20.76;45.24
66681;BME280;53575;51.366;12.350;2023-05-14T11:37:05;100277.78;;;20.88;43.74
66681;BME280;53575;51.366;12.350;2023-05-14T11:39:31;100273.16;;;21.09;43.45
66681;BME280;53575;51.366;12.350;2023-05-14T11:41:58;100277.84;;;20.86;45.72
66681;BME280;53575;51.366;12.350;2023-05-14T11:44:24;100272.09;;;21.13;44.39
66681;BME280;53575;51.366;12.350;2023-05-14T11:46:56;100275.94;;;21.42;43.95
66681;BME280;53575;51.366;12.350;2023-05-14T11:49:23;100273.25;;;21.25;44.02
66681;BME280;53575;51.366;12.350;2023-05-14T11:51:49;100271.84;;;21.17;43.78
66681;BME280;53575;51.366;12.350;2023-05-14T11:54:14;100275.22;;;21.04;44.18
66681;BME280;53575;51.366;12.350;2023-05-14T11:56:40;100266.44;;;21.02;45.59
66681;BME280;53575;51.366;12.350;2023-05-14T11:59:05;100268.13;;;21.22;44.81
66681;BME280;53575;51.366;12.350;2023-05-14T12:01:38;100276.25;;;21.53;46.14
66681;BME280;53575;51.366;12.350;2023-05-14T12:04:04;100275.50;;;21.34;46.53
66681;BME280;53575;51.366;12.350;2023-05-14T12:06:30;100273.72;;;21.15;47.62
66681;BME280;53575;51.366;12.350;2023-05-14T12:08:59;100271.31;;;21.11;48.58
66681;BME280;53575;51.366;12.350;2023-05-14T12:11:29;100266.91;;;21.10;47.91
66681;BME280;53575;51.366;12.350;2023-05-14T12:13:56;100264.88;;;21.32;48.59
66681;BME280;53575;51.366;12.350;2023-05-14T12:16:22;100258.19;;;21.60;45.40
66681;BME280;53575;51.366;12.350;2023-05-14T12:18:47;100266.88;;;21.46;45.75
66681;BME280;53575;51.366;12.350;2023-05-14T12:21:13;100258.34;;;21.22;46.36
66681;BME280;53575;51.366;12.350;2023-05-14T12:23:38;100265.63;;;21.36;45.82
66681;BME280;53575;51.366;12.350;2023-05-14T12:26:05;100260.25;;;21.37;46.84
66681;BME280;53575;51.366;12.350;2023-05-14T12:28:31;100262.09;;;21.35;47.02
66681;BME280;53575;51.366;12.350;2023-05-14T12:30:58;100258.50;;;21.36;46.51
66681;BME280;53575;51.366;12.350;2023-05-14T12:33:25;100257.66;;;21.36;46.20
66681;BME280;53575;51.366;12.350;2023-05-14T12:35:53;100262.34;;;20.77;48.09
66681;BME280;53575;51.366;12.350;2023-05-14T12:38:25;100256.72;;;20.66;48.56
66681;BME280;53575;51.366;12.350;2023-05-14T12:40:50;100261.41;;;20.61;50.53
66681;BME280;53575;51.366;12.350;2023-05-14T12:43:16;100250.78;;;20.78;49.68